createdAt,value
2022-09-20T00:01:21.943Z,14.92
2022-09-20T00:03:52.072Z,14.94
2022-09-20T00:06:22.513Z,14.89
2022-09-20T00:08:50.420Z,14.83
2022-09-20T00:11:20.218Z,14.86
2022-09-20T00:13:49.979Z,14.80
2022-09-20T00:16:24.168Z,14.80
2022-09-20T00:18:53.137Z,14.78
2022-09-20T00:21:23.593Z,14.76
2022-09-20T00:23:52.601Z,14.73
2022-09-20T00:26:21.179Z,14.77
2022-09-20T00:28:48.477Z,14.84
2022-09-20T00:31:16.359Z,14.90
2022-09-20T00:34:02.735Z,14.89
2022-09-20T00:36:30.235Z,14.98
2022-09-20T00:39:00.005Z,14.91
2022-09-20T00:41:28.483Z,14.81
2022-09-20T00:43:56.519Z,14.83
2022-09-20T00:46:29.798Z,14.71
2022-09-20T00:49:04.107Z,14.94
2022-09-20T00:51:35.323Z,14.96
2022-09-20T00:54:05.842Z,15.02
2022-09-20T00:56:37.000Z,14.98
2022-09-20T00:59:10.174Z,15.02
2022-09-20T01:01:37.945Z,14.98
2022-09-20T01:04:05.859Z,14.84
2022-09-20T01:06:34.865Z,14.90
2022-09-20T01:09:05.710Z,14.94
2022-09-20T01:11:35.717Z,14.94
2022-09-20T01:14:02.981Z,14.83
2022-09-20T01:16:32.274Z,14.74
2022-09-20T01:19:05.655Z,14.76
2022-09-20T01:21:34.890Z,14.85
2022-09-20T01:24:25.205Z,14.81
2022-09-20T01:27:13.036Z,14.84
2022-09-20T01:30:08.698Z,14.83
2022-09-20T01:33:03.135Z,14.84
2022-09-20T01:35:34.538Z,14.91
2022-09-20T01:38:03.091Z,14.96
2022-09-20T01:41:04.647Z,14.88
2022-09-20T01:43:55.254Z,15.01
2022-09-20T01:46:31.786Z,15.02
2022-09-20T01:49:33.896Z,15.15
2022-09-20T01:52:19.821Z,15.21
2022-09-20T01:55:02.314Z,15.17
2022-09-20T01:58:05.050Z,15.18
2022-09-20T02:01:04.708Z,15.18
2022-09-20T02:04:09.541Z,15.24
2022-09-20T02:07:07.511Z,15.21
2022-09-20T02:10:16.160Z,15.10
2022-09-20T02:13:01.401Z,15.00
2022-09-20T02:15:36.837Z,15.01
2022-09-20T02:18:22.442Z,15.05
2022-09-20T02:21:05.597Z,15.10
2022-09-20T02:23:45.791Z,15.01
2022-09-20T02:26:22.008Z,15.00
2022-09-20T02:28:52.063Z,15.05
2022-09-20T02:31:58.835Z,15.10
2022-09-20T02:34:29.532Z,15.23
2022-09-20T02:37:21.447Z,15.15
2022-09-20T02:40:32.625Z,15.20
2022-09-20T02:43:23.147Z,15.16
2022-09-20T02:46:24.679Z,15.18
2022-09-20T02:49:16.000Z,15.23
2022-09-20T02:52:04.937Z,15.24
2022-09-20T02:54:54.837Z,15.21
2022-09-20T02:57:27.376Z,15.28
2022-09-20T03:00:17.101Z,15.31
2022-09-20T03:03:16.082Z,15.31
2022-09-20T03:06:07.601Z,15.30
2022-09-20T03:08:49.961Z,15.36
2022-09-20T03:11:28.087Z,15.39
2022-09-20T03:14:09.687Z,15.38
2022-09-20T03:16:58.829Z,15.31
2022-09-20T03:19:51.659Z,15.32
2022-09-20T03:22:39.651Z,15.33
2022-09-20T03:25:25.576Z,15.33
2022-09-20T03:28:17.321Z,15.31
2022-09-20T03:30:52.252Z,15.17
2022-09-20T03:33:46.072Z,15.18
2022-09-20T03:36:38.237Z,15.03
2022-09-20T03:39:43.047Z,14.88
2022-09-20T03:42:20.135Z,15.03
2022-09-20T03:45:15.738Z,15.04
2022-09-20T03:48:29.913Z,14.90
2022-09-20T03:51:20.847Z,14.95
2022-09-20T03:54:03.297Z,15.10
2022-09-20T03:56:30.592Z,14.89
2022-09-20T03:59:06.483Z,14.85
2022-09-20T04:01:48.895Z,15.12
2022-09-20T04:04:44.669Z,15.15
2022-09-20T04:07:52.534Z,15.32
2022-09-20T04:10:41.294Z,15.45
2022-09-20T04:13:29.991Z,15.41
2022-09-20T04:16:09.604Z,15.26
2022-09-20T04:18:55.833Z,15.31
2022-09-20T04:21:28.228Z,15.14
2022-09-20T04:24:16.753Z,15.02
2022-09-20T04:26:52.166Z,14.90
2022-09-20T04:29:54.403Z,15.22
2022-09-20T04:32:47.233Z,15.03
2022-09-20T04:35:52.119Z,15.04
2022-09-20T04:38:21.377Z,14.95
2022-09-20T04:41:04.328Z,14.88
2022-09-20T04:44:07.533Z,14.89
2022-09-20T04:46:56.392Z,14.84
2022-09-20T04:49:41.889Z,14.81
2022-09-20T04:52:21.224Z,14.87
2022-09-20T04:55:20.911Z,14.82
2022-09-20T04:58:20.008Z,14.85
2022-09-20T05:01:11.318Z,14.80
2022-09-20T05:03:59.793Z,14.85
2022-09-20T05:06:36.377Z,14.78
2022-09-20T05:09:35.984Z,14.91
2022-09-20T05:12:07.129Z,14.90
2022-09-20T05:15:08.480Z,14.72
2022-09-20T05:17:53.908Z,14.63
2022-09-20T05:20:39.547Z,14.66
2022-09-20T05:23:35.040Z,14.69
2022-09-20T05:26:09.033Z,14.79
2022-09-20T05:28:55.137Z,14.75
2022-09-20T05:31:31.077Z,14.68
2022-09-20T05:34:39.495Z,14.85
2022-09-20T05:37:35.706Z,14.84
2022-09-20T05:40:18.182Z,15.13
2022-09-20T05:43:13.597Z,15.23
2022-09-20T05:45:50.395Z,15.26
2022-09-20T05:48:52.812Z,15.70
2022-09-20T05:51:23.277Z,15.94
2022-09-20T05:54:09.489Z,15.89
2022-09-20T05:57:08.245Z,15.73
2022-09-20T05:59:45.561Z,15.76
2022-09-20T06:02:24.984Z,15.60
2022-09-20T06:05:09.545Z,15.51
2022-09-20T06:07:55.116Z,15.56
2022-09-20T06:10:54.843Z,15.76
2022-09-20T06:14:04.009Z,15.95
2022-09-20T06:16:44.143Z,16.20
2022-09-20T06:19:35.635Z,16.31
2022-09-20T06:22:25.774Z,16.45
2022-09-20T06:25:11.314Z,16.59
2022-09-20T06:27:45.972Z,16.56
2022-09-20T06:30:20.276Z,16.75
2022-09-20T06:33:06.659Z,17.03
2022-09-20T06:35:39.442Z,17.10
2022-09-20T06:38:47.719Z,17.36
2022-09-20T06:41:28.820Z,17.61
2022-09-20T06:44:01.406Z,17.79
2022-09-20T06:46:31.168Z,18.18
2022-09-20T06:48:58.991Z,18.37
2022-09-20T06:51:29.014Z,18.36
2022-09-20T06:53:57.833Z,18.54
2022-09-20T06:56:31.555Z,18.73
2022-09-20T06:59:00.506Z,18.61
2022-09-20T07:01:30.541Z,18.71
2022-09-20T07:03:59.232Z,18.93
2022-09-20T07:06:26.985Z,19.08
2022-09-20T07:08:54.482Z,19.24
2022-09-20T07:11:23.459Z,19.22
2022-09-20T07:13:55.393Z,19.49
2022-09-20T07:16:22.883Z,19.31
2022-09-20T07:18:52.594Z,19.78
2022-09-20T07:21:21.634Z,19.92
2022-09-20T07:23:49.416Z,20.41
2022-09-20T07:26:20.405Z,21.02
2022-09-20T07:28:48.271Z,21.30
2022-09-20T07:31:17.232Z,20.82
2022-09-20T07:33:45.101Z,20.40
2022-09-20T07:36:13.116Z,20.01
2022-09-20T07:38:42.439Z,20.44
2022-09-20T07:41:10.986Z,20.69
2022-09-20T07:43:39.994Z,20.87
2022-09-20T07:46:10.533Z,20.81
2022-09-20T07:48:38.558Z,20.86
2022-09-20T07:51:09.161Z,20.72
2022-09-20T07:53:37.765Z,20.93
2022-09-20T07:56:10.626Z,21.33
2022-09-20T07:58:38.500Z,21.59
2022-09-20T08:01:08.472Z,21.76
2022-09-20T08:03:36.794Z,22.07
2022-09-20T08:06:07.802Z,22.00
2022-09-20T08:08:36.636Z,21.91
2022-09-20T08:11:13.091Z,21.84
2022-09-20T08:16:38.566Z,22.22
2022-09-20T08:19:06.023Z,21.96
2022-09-20T08:21:35.662Z,21.99
2022-09-20T08:24:04.247Z,22.37
2022-09-20T08:26:34.161Z,22.28
2022-09-20T08:29:01.827Z,22.08
2022-09-20T08:31:35.702Z,22.49
2022-09-20T08:34:07.051Z,22.56
2022-09-20T08:36:37.249Z,22.41
2022-09-20T08:42:14.471Z,22.17
2022-09-20T08:44:59.592Z,22.13
2022-09-20T08:47:33.473Z,22.69
2022-09-20T08:50:17.033Z,23.13
2022-09-20T08:52:48.788Z,22.95
2022-09-20T08:55:23.315Z,22.36
2022-09-20T08:57:54.001Z,22.55
2022-09-20T09:00:29.695Z,22.81
2022-09-20T09:03:01.162Z,22.94
2022-09-20T09:05:39.994Z,22.66
2022-09-20T09:08:16.910Z,22.68
2022-09-20T09:10:48.353Z,22.61
2022-09-20T09:13:24.091Z,22.83
2022-09-20T09:16:06.888Z,22.99
2022-09-20T09:18:37.973Z,22.67
2022-09-20T09:21:07.930Z,22.71
2022-09-20T09:23:45.781Z,23.03
2022-09-20T09:26:20.157Z,23.38
2022-09-20T09:28:48.643Z,23.48
2022-09-20T09:31:26.354Z,23.65
2022-09-20T09:33:53.962Z,24.04
2022-09-20T09:36:25.644Z,24.06
2022-09-20T09:39:16.605Z,23.74
2022-09-20T09:41:44.596Z,23.49
2022-09-20T09:44:27.955Z,23.69
2022-09-20T09:46:57.449Z,23.97
2022-09-20T09:49:36.509Z,24.53
2022-09-20T09:52:24.908Z,25.09
2022-09-20T09:55:00.414Z,25.12
2022-09-20T09:58:03.431Z,25.23
2022-09-20T10:00:31.677Z,24.80
2022-09-20T10:03:14.116Z,24.91
2022-09-20T10:06:10.783Z,25.16
2022-09-20T10:09:13.207Z,24.28
2022-09-20T10:11:58.988Z,24.33
2022-09-20T10:14:31.045Z,24.60
2022-09-20T10:17:18.049Z,25.12
2022-09-20T10:19:57.618Z,25.72
2022-09-20T10:22:31.433Z,25.17
2022-09-20T10:25:35.172Z,24.94
2022-09-20T10:28:20.556Z,24.78
2022-09-20T10:30:58.664Z,24.59
2022-09-20T10:33:32.814Z,24.93
2022-09-20T10:36:12.562Z,24.85
2022-09-20T10:38:40.028Z,25.27
2022-09-20T10:41:51.468Z,26.00
2022-09-20T10:44:19.160Z,26.37
2022-09-20T10:46:53.302Z,25.85
2022-09-20T10:49:38.927Z,26.36
2022-09-20T10:52:07.664Z,26.39
2022-09-20T10:55:06.539Z,26.50
2022-09-20T10:57:46.948Z,27.15
2022-09-20T11:00:28.182Z,26.88
2022-09-20T11:03:07.639Z,25.67
2022-09-20T11:06:08.779Z,25.88
2022-09-20T11:08:38.463Z,26.46
2022-09-20T11:11:20.189Z,26.53
2022-09-20T11:14:22.377Z,25.89
2022-09-20T11:16:57.953Z,26.34
2022-09-20T11:19:51.149Z,27.12
2022-09-20T11:22:40.890Z,27.28
2022-09-20T11:25:28.739Z,26.80
2022-09-20T11:28:25.785Z,26.28
2022-09-20T11:31:19.190Z,25.85
2022-09-20T11:34:16.647Z,26.05
2022-09-20T11:36:54.818Z,26.17
2022-09-20T11:39:28.216Z,27.07
2022-09-20T11:42:00.584Z,28.55
2022-09-20T11:44:28.350Z,29.73
2022-09-20T11:47:10.405Z,29.22
2022-09-20T11:49:58.710Z,28.77
2022-09-20T11:53:00.114Z,28.12
2022-09-20T11:55:51.015Z,28.04
2022-09-20T11:58:22.714Z,29.14
2022-09-20T12:00:54.659Z,29.14
2022-09-20T12:03:34.158Z,28.84
2022-09-20T12:06:09.864Z,27.60
2022-09-20T12:08:41.103Z,27.52
2022-09-20T12:11:14.970Z,26.55
2022-09-20T12:13:52.882Z,26.44
2022-09-20T12:16:46.779Z,27.05
2022-09-20T12:19:32.480Z,26.85
2022-09-20T12:21:59.834Z,26.29
2022-09-20T12:24:32.501Z,25.89
2022-09-20T12:27:25.036Z,25.94
2022-09-20T12:30:21.571Z,26.40
2022-09-20T12:32:52.425Z,26.07
2022-09-20T12:35:40.480Z,25.01
2022-09-20T12:38:29.345Z,25.26
2022-09-20T12:41:03.943Z,25.55
2022-09-20T12:43:34.451Z,25.78
2022-09-20T12:46:06.453Z,26.05
2022-09-20T12:48:39.431Z,25.51
2022-09-20T12:51:41.316Z,25.91
2022-09-20T12:54:12.108Z,25.68
2022-09-20T12:56:41.872Z,25.70
2022-09-20T12:59:25.317Z,25.74
2022-09-20T13:01:58.130Z,25.61
2022-09-20T13:04:55.590Z,25.78
2022-09-20T13:07:44.182Z,25.37
2022-09-20T13:10:24.111Z,24.63
2022-09-20T13:12:58.298Z,24.65
2022-09-20T13:15:26.690Z,25.03
2022-09-20T13:17:56.692Z,25.31
2022-09-20T13:20:29.535Z,25.75
2022-09-20T13:23:00.426Z,25.83
2022-09-20T13:25:32.676Z,25.83
2022-09-20T13:28:07.945Z,25.20
2022-09-20T13:30:35.637Z,25.12
2022-09-20T13:33:24.605Z,25.14
2022-09-20T13:35:54.887Z,25.09
2022-09-20T13:38:25.358Z,25.21
2022-09-20T13:40:58.660Z,25.22
2022-09-20T13:43:36.926Z,25.44
2022-09-20T13:46:22.526Z,25.43
2022-09-20T13:48:59.937Z,25.17
2022-09-20T13:51:28.812Z,24.63
2022-09-20T13:54:27.768Z,24.23
2022-09-20T13:56:59.197Z,24.66
2022-09-20T13:59:33.912Z,24.99
2022-09-20T14:02:01.971Z,24.81
2022-09-20T14:04:31.648Z,24.71
2022-09-20T14:07:01.101Z,25.17
2022-09-20T14:09:36.329Z,25.23
2022-09-20T14:12:05.063Z,25.11
2022-09-20T14:14:34.715Z,24.94
2022-09-20T14:17:06.434Z,24.93
2022-09-20T14:19:41.458Z,24.48
2022-09-20T14:22:16.543Z,24.07
2022-09-20T14:25:04.625Z,23.66
2022-09-20T14:27:32.895Z,23.29
2022-09-20T14:30:02.537Z,23.23
2022-09-20T14:32:43.262Z,23.38
2022-09-20T14:35:20.603Z,23.20
2022-09-20T14:37:51.528Z,23.01
2022-09-20T14:40:34.667Z,23.06
2022-09-20T14:43:04.866Z,22.97
2022-09-20T14:45:43.364Z,23.25
2022-09-20T14:48:17.037Z,22.88
2022-09-20T14:50:47.540Z,22.68
2022-09-20T14:53:27.150Z,22.55
2022-09-20T14:56:06.615Z,22.92
2022-09-20T14:58:55.405Z,22.94
2022-09-20T15:01:26.074Z,22.85
2022-09-20T15:03:54.036Z,22.29
2022-09-20T15:06:21.387Z,22.02
2022-09-20T15:08:51.008Z,21.90
2022-09-20T15:11:19.521Z,21.84
2022-09-20T15:13:46.909Z,21.74
2022-09-20T15:16:17.916Z,21.75
2022-09-20T15:18:45.593Z,21.72
2022-09-20T15:21:15.446Z,21.78
2022-09-20T15:23:43.192Z,21.79
2022-09-20T15:26:13.842Z,21.76
2022-09-20T15:28:44.167Z,21.71
2022-09-20T15:31:13.813Z,21.75
2022-09-20T15:33:42.012Z,21.67
2022-09-20T15:36:10.527Z,21.62
2022-09-20T15:38:48.228Z,21.62
2022-09-20T15:41:15.680Z,21.63
2022-09-20T15:43:44.553Z,21.60
2022-09-20T15:46:29.193Z,21.60
2022-09-20T15:48:57.196Z,21.35
2022-09-20T15:51:24.694Z,21.38
2022-09-20T15:53:59.514Z,21.37
2022-09-20T15:56:29.153Z,21.23
2022-09-20T15:59:00.553Z,21.24
2022-09-20T16:01:41.007Z,21.29
2022-09-20T16:04:14.013Z,21.20
2022-09-20T16:06:43.924Z,21.13
2022-09-20T16:09:12.186Z,21.06
2022-09-20T16:11:40.184Z,20.98
2022-09-20T16:14:07.950Z,20.94
2022-09-20T16:16:40.018Z,20.91
2022-09-20T16:19:21.143Z,20.83
2022-09-20T16:21:59.299Z,20.60
2022-09-20T16:24:32.182Z,20.54
2022-09-20T16:27:03.619Z,20.46
2022-09-20T16:29:31.344Z,20.34
2022-09-20T16:32:00.511Z,20.28
2022-09-20T16:34:36.565Z,20.21
2022-09-20T16:37:12.062Z,20.12
2022-09-20T16:39:44.817Z,20.04
2022-09-20T16:42:15.610Z,20.00
2022-09-20T16:50:55.154Z,19.80
2022-09-20T16:53:26.206Z,19.76
2022-09-20T16:56:04.697Z,19.64
2022-09-20T16:58:32.555Z,19.76
2022-09-20T17:01:10.078Z,19.65
2022-09-20T17:03:46.592Z,19.49
2022-09-20T17:06:36.387Z,19.66
2022-09-20T17:09:11.852Z,19.63
2022-09-20T17:11:49.918Z,19.51
2022-09-20T17:14:30.388Z,19.56
2022-09-20T17:17:07.125Z,19.53
2022-09-20T17:19:42.815Z,19.17
2022-09-20T17:22:23.248Z,19.50
2022-09-20T17:24:50.629Z,19.45
2022-09-20T17:27:22.805Z,19.39
2022-09-20T17:29:52.716Z,19.25
2022-09-20T17:32:22.935Z,19.26
2022-09-20T17:34:53.701Z,19.13
2022-09-20T17:37:23.473Z,19.26
2022-09-20T17:39:51.165Z,19.19
2022-09-20T17:42:21.594Z,19.32
2022-09-20T17:44:49.185Z,19.25
2022-09-20T17:47:21.043Z,18.97
2022-09-20T17:49:51.418Z,19.02
2022-09-20T17:52:21.882Z,19.09
2022-09-20T17:54:49.451Z,19.05
2022-09-20T17:57:16.856Z,19.05
2022-09-20T17:59:44.321Z,18.90
2022-09-20T18:02:11.654Z,18.96
2022-09-20T18:04:39.049Z,18.81
2022-09-20T18:07:06.559Z,18.86
2022-09-20T18:09:34.172Z,18.80
2022-09-20T18:12:01.617Z,18.70
2022-09-20T18:14:30.386Z,18.63
2022-09-20T18:17:01.438Z,18.62
2022-09-20T18:19:34.015Z,18.49
2022-09-20T18:22:02.662Z,18.33
2022-09-20T18:24:30.555Z,18.30
2022-09-20T18:27:01.259Z,18.42
2022-09-20T18:29:29.574Z,18.55
2022-09-20T18:31:58.116Z,18.52
2022-09-20T18:34:31.285Z,18.42
2022-09-20T18:37:00.101Z,18.36
2022-09-20T18:39:35.586Z,18.49
2022-09-20T18:42:03.530Z,18.47
2022-09-20T18:44:32.572Z,18.25
2022-09-20T18:47:01.651Z,18.49
2022-09-20T18:49:30.758Z,18.39
2022-09-20T18:51:58.691Z,18.34
2022-09-20T18:54:27.199Z,18.07
2022-09-20T18:56:54.787Z,18.04
2022-09-20T18:59:26.955Z,18.01
2022-09-20T19:02:12.592Z,17.98
2022-09-20T19:05:07.008Z,17.87
2022-09-20T19:08:08.045Z,17.91
2022-09-20T19:10:51.318Z,17.87
2022-09-20T19:13:25.901Z,17.91
2022-09-20T19:16:11.493Z,17.85
2022-09-20T19:19:15.113Z,17.70
2022-09-20T19:22:16.727Z,17.59
2022-09-20T19:25:13.654Z,17.49
2022-09-20T19:27:41.736Z,17.52
2022-09-20T19:30:13.672Z,17.49
2022-09-20T19:32:41.678Z,17.46
2022-09-20T19:35:34.422Z,17.39
2022-09-20T19:38:18.060Z,17.35
2022-09-20T19:41:14.025Z,17.17
2022-09-20T19:43:47.126Z,17.24
2022-09-20T19:46:58.423Z,17.38
2022-09-20T19:49:36.993Z,17.55
2022-09-20T19:52:09.030Z,17.38
2022-09-20T19:54:36.763Z,17.41
2022-09-20T19:57:09.942Z,17.37
2022-09-20T19:59:37.617Z,17.18
2022-09-20T20:02:05.886Z,17.07
2022-09-20T20:04:33.511Z,16.96
2022-09-20T20:07:16.783Z,16.82
2022-09-20T20:09:56.193Z,16.72
2022-09-20T20:12:41.536Z,16.95
2022-09-20T20:15:37.713Z,16.78
2022-09-20T20:18:37.441Z,16.69
2022-09-20T20:21:13.693Z,16.61
2022-09-20T20:23:48.062Z,16.56
2022-09-20T20:26:26.172Z,16.62
2022-09-20T20:28:53.898Z,16.46
2022-09-20T20:31:22.099Z,16.42
2022-09-20T20:33:54.496Z,16.35
2022-09-20T20:36:21.925Z,16.33
2022-09-20T20:38:53.379Z,16.34
2022-09-20T20:41:21.905Z,16.01
2022-09-20T20:43:56.587Z,16.04
2022-09-20T20:46:25.594Z,16.09
2022-09-20T20:48:53.138Z,16.11
2022-09-20T20:51:22.514Z,16.16
2022-09-20T20:53:52.203Z,16.16
2022-09-20T20:56:26.074Z,15.81
2022-09-20T20:58:54.383Z,16.05
2022-09-20T21:01:25.081Z,16.02
2022-09-20T21:03:54.199Z,15.90
2022-09-20T21:06:25.278Z,15.83
2022-09-20T21:08:52.923Z,15.75
2022-09-20T21:11:32.214Z,15.64
2022-09-20T21:14:01.619Z,15.59
2022-09-20T21:16:31.885Z,15.55
2022-09-20T21:18:59.516Z,15.58
2022-09-20T21:21:30.214Z,15.62
2022-09-20T21:24:00.319Z,15.62
2022-09-20T21:26:32.129Z,15.46
2022-09-20T21:29:01.659Z,15.37
2022-09-20T21:31:31.668Z,15.33
2022-09-20T21:33:59.794Z,15.29
2022-09-20T21:36:29.383Z,15.28
2022-09-20T21:38:57.219Z,15.29
2022-09-20T21:41:31.921Z,15.47
2022-09-20T21:44:00.995Z,15.32
2022-09-20T21:46:30.059Z,15.41
2022-09-20T21:48:59.973Z,15.35
2022-09-20T21:51:31.484Z,15.45
2022-09-20T21:54:01.756Z,15.31
2022-09-20T21:56:32.366Z,15.29
2022-09-20T21:59:02.815Z,15.32
2022-09-20T22:01:35.671Z,15.31
2022-09-20T22:04:08.650Z,15.35
2022-09-20T22:06:38.970Z,15.11
2022-09-20T22:09:14.975Z,15.08
2022-09-20T22:11:47.477Z,15.08
2022-09-20T22:14:16.540Z,14.93
2022-09-20T22:16:45.384Z,14.98
2022-09-20T22:19:15.350Z,14.75
2022-09-20T22:21:45.369Z,14.76
2022-09-20T22:24:14.286Z,14.98
2022-09-20T22:26:44.776Z,14.82
2022-09-20T22:29:12.467Z,14.83
2022-09-20T22:31:45.357Z,14.59
2022-09-20T22:34:18.550Z,14.72
2022-09-20T22:36:47.170Z,14.74
2022-09-20T22:39:15.574Z,14.69
2022-09-20T22:41:43.585Z,14.50
2022-09-20T22:44:11.656Z,14.55
2022-09-20T22:46:39.703Z,14.62
2022-09-20T22:49:08.676Z,14.59
2022-09-20T22:51:36.837Z,14.67
2022-09-20T22:54:09.849Z,14.66
2022-09-20T22:56:39.644Z,14.54
2022-09-20T22:59:12.107Z,14.49
2022-09-20T23:01:42.540Z,14.51
2022-09-20T23:04:13.089Z,14.63
2022-09-20T23:06:43.077Z,14.50
2022-09-20T23:09:13.185Z,14.44
2022-09-20T23:11:42.945Z,14.53
2022-09-20T23:14:21.483Z,14.44
2022-09-20T23:16:49.626Z,14.55
2022-09-20T23:19:17.684Z,14.41
2022-09-20T23:21:45.446Z,14.50
2022-09-20T23:24:14.591Z,14.50
2022-09-20T23:26:43.318Z,14.56
2022-09-20T23:29:12.931Z,14.47
2022-09-20T23:31:45.758Z,14.48
2022-09-20T23:34:14.252Z,14.21
2022-09-20T23:36:41.852Z,14.33
2022-09-20T23:39:10.476Z,14.37
2022-09-20T23:41:38.687Z,14.31
2022-09-20T23:44:10.304Z,14.48
2022-09-20T23:46:39.019Z,14.22
2022-09-20T23:49:07.647Z,14.34
2022-09-20T23:51:35.753Z,14.19
2022-09-20T23:54:03.344Z,14.20
2022-09-20T23:56:30.786Z,14.12
2022-09-20T23:58:58.240Z,14.25
